createdAt,value
2019-05-26T00:00:30.525Z,1018.23
2019-05-26T00:01:00.583Z,1018.19
2019-05-26T00:01:32.174Z,1018.20
2019-05-26T00:02:00.682Z,1018.21
2019-05-26T00:03:00.579Z,1018.20
2019-05-26T00:03:30.521Z,1018.20
2019-05-26T00:04:00.638Z,1018.19
2019-05-26T00:04:34.268Z,1018.19
2019-05-26T00:05:30.523Z,1018.18
2019-05-26T00:06:00.647Z,1018.14
2019-05-26T00:06:30.541Z,1018.17
2019-05-26T00:07:00.583Z,1018.14
2019-05-26T00:08:00.591Z,1018.10
2019-05-26T00:08:30.534Z,1018.11
2019-05-26T00:09:00.617Z,1018.13
2019-05-26T00:09:30.525Z,1018.14
2019-05-26T00:10:31.130Z,1018.14
2019-05-26T00:11:00.590Z,1018.11
2019-05-26T00:11:30.536Z,1018.14
2019-05-26T00:12:02.230Z,1018.15
2019-05-26T00:13:03.219Z,1018.17
2019-05-26T00:13:30.521Z,1018.18
2019-05-26T00:14:00.589Z,1018.16
2019-05-26T00:14:30.539Z,1018.15
2019-05-26T00:15:30.533Z,1018.15
2019-05-26T00:16:00.591Z,1018.15
2019-05-26T00:16:30.674Z,1018.13
2019-05-26T00:17:00.594Z,1018.11
2019-05-26T00:18:00.588Z,1018.09
2019-05-26T00:18:35.529Z,1018.10
2019-05-26T00:19:00.591Z,1018.09
2019-05-26T00:19:30.529Z,1018.08
2019-05-26T00:20:30.538Z,1018.04
2019-05-26T00:21:00.597Z,1018.07
2019-05-26T00:21:30.545Z,1018.05
2019-05-26T00:22:00.589Z,1018.07
2019-05-26T00:23:00.594Z,1018.03
2019-05-26T00:23:33.063Z,1018.04
2019-05-26T00:24:00.589Z,1018.07
2019-05-26T00:24:30.528Z,1018.04
2019-05-26T00:25:34.253Z,1018.03
2019-05-26T00:26:00.595Z,1018.04
2019-05-26T00:26:30.564Z,1018.03
2019-05-26T00:27:00.590Z,1018.02
2019-05-26T00:28:00.591Z,1018.03
2019-05-26T00:28:30.527Z,1018.03
2019-05-26T00:29:00.668Z,1018.00
2019-05-26T00:29:30.542Z,1018.01
2019-05-26T00:30:30.538Z,1017.98
2019-05-26T00:31:00.656Z,1017.98
2019-05-26T00:31:30.546Z,1017.98
2019-05-26T00:32:00.592Z,1017.97
2019-05-26T00:33:02.106Z,1017.93
2019-05-26T00:33:30.523Z,1017.93
2019-05-26T00:34:03.082Z,1017.93
2019-05-26T00:34:30.547Z,1017.93
2019-05-26T00:35:30.539Z,1017.94
2019-05-26T00:36:05.323Z,1017.92
2019-05-26T00:36:30.529Z,1017.90
2019-05-26T00:37:00.584Z,1017.91
2019-05-26T00:38:00.591Z,1017.88
2019-05-26T00:38:30.534Z,1017.90
2019-05-26T00:39:00.596Z,1017.89
2019-05-26T00:39:30.541Z,1017.90
2019-05-26T00:40:30.560Z,1017.88
2019-05-26T00:41:00.602Z,1017.86
2019-05-26T00:41:30.608Z,1017.85
2019-05-26T00:42:00.596Z,1017.84
2019-05-26T00:43:00.601Z,1017.85
2019-05-26T00:43:32.171Z,1017.83
2019-05-26T00:44:00.597Z,1017.80
2019-05-26T00:44:33.142Z,1017.80
2019-05-26T00:45:30.566Z,1017.77
2019-05-26T00:46:00.612Z,1017.80
2019-05-26T00:46:35.262Z,1017.77
2019-05-26T00:47:00.589Z,1017.79
2019-05-26T00:48:00.591Z,1017.75
2019-05-26T00:48:30.541Z,1017.75
2019-05-26T00:49:00.615Z,1017.72
2019-05-26T00:49:30.532Z,1017.70
2019-05-26T00:50:30.538Z,1017.69
2019-05-26T00:51:00.595Z,1017.72
2019-05-26T00:51:30.537Z,1017.71
2019-05-26T00:52:00.680Z,1017.71
2019-05-26T00:53:00.588Z,1017.70
2019-05-26T00:53:30.555Z,1017.71
2019-05-26T00:54:02.229Z,1017.73
2019-05-26T00:54:30.541Z,1017.72
2019-05-26T00:55:30.558Z,1017.70
2019-05-26T00:56:00.776Z,1017.70
2019-05-26T00:56:30.653Z,1017.69
2019-05-26T00:57:05.334Z,1017.71
2019-05-26T00:58:00.637Z,1017.69
2019-05-26T00:58:30.547Z,1017.69
2019-05-26T00:59:00.603Z,1017.70
2019-05-26T00:59:30.543Z,1017.69
2019-05-26T01:00:30.536Z,1017.66
2019-05-26T01:01:01.604Z,1017.69
2019-05-26T01:01:30.546Z,1017.69
2019-05-26T01:02:00.599Z,1017.68
2019-05-26T01:03:00.623Z,1017.73
2019-05-26T01:03:30.536Z,1017.70
2019-05-26T01:04:00.602Z,1017.70
2019-05-26T01:04:32.289Z,1017.67
2019-05-26T01:05:33.268Z,1017.70
2019-05-26T01:06:00.596Z,1017.74
2019-05-26T01:06:30.539Z,1017.71
2019-05-26T01:07:00.598Z,1017.72
2019-05-26T01:08:06.702Z,1017.71
2019-05-26T01:08:30.655Z,1017.73
2019-05-26T01:09:00.596Z,1017.70
2019-05-26T01:09:30.546Z,1017.73
2019-05-26T01:10:30.627Z,1017.75
2019-05-26T01:11:02.609Z,1017.73
2019-05-26T01:11:30.543Z,1017.74
2019-05-26T01:12:00.607Z,1017.73
2019-05-26T01:13:00.606Z,1017.72
2019-05-26T01:13:30.568Z,1017.73
2019-05-26T01:14:00.615Z,1017.71
2019-05-26T01:14:30.540Z,1017.72
2019-05-26T01:15:30.547Z,1017.72
2019-05-26T01:16:03.092Z,1017.71
2019-05-26T01:16:30.547Z,1017.71
2019-05-26T01:17:00.608Z,1017.72
2019-05-26T01:18:04.286Z,1017.71
2019-05-26T01:18:30.547Z,1017.71
2019-05-26T01:19:00.620Z,1017.74
2019-05-26T01:19:30.537Z,1017.74
2019-05-26T01:20:30.540Z,1017.73
2019-05-26T01:21:00.666Z,1017.76
2019-05-26T01:21:30.548Z,1017.75
2019-05-26T01:22:00.606Z,1017.77
2019-05-26T01:23:00.668Z,1017.76
2019-05-26T01:23:30.543Z,1017.77
2019-05-26T01:24:00.605Z,1017.77
2019-05-26T01:24:30.546Z,1017.78
2019-05-26T01:25:32.154Z,1017.79
2019-05-26T01:26:00.610Z,1017.80
2019-05-26T01:26:33.128Z,1017.79
2019-05-26T01:27:00.628Z,1017.81
2019-05-26T01:28:00.613Z,1017.79
2019-05-26T01:28:34.269Z,1017.78
2019-05-26T01:29:00.611Z,1017.82
2019-05-26T01:29:30.588Z,1017.80
2019-05-26T01:30:30.551Z,1017.80
2019-05-26T01:31:00.606Z,1017.81
2019-05-26T01:31:30.551Z,1017.80
2019-05-26T01:32:00.608Z,1017.79
2019-05-26T01:33:00.647Z,1017.81
2019-05-26T01:33:30.542Z,1017.80
2019-05-26T01:34:00.602Z,1017.82
2019-05-26T01:34:30.549Z,1017.79
2019-05-26T01:35:30.670Z,1017.80
2019-05-26T01:36:02.220Z,1017.79
2019-05-26T01:36:30.550Z,1017.80
2019-05-26T01:37:03.204Z,1017.79
2019-05-26T01:38:00.604Z,1017.82
2019-05-26T01:38:30.551Z,1017.83
2019-05-26T01:39:04.565Z,1017.80
2019-05-26T01:39:30.610Z,1017.84
2019-05-26T01:40:30.553Z,1017.84
2019-05-26T01:41:00.622Z,1017.83
2019-05-26T01:41:30.636Z,1017.86
2019-05-26T01:42:00.613Z,1017.85
2019-05-26T01:43:00.619Z,1017.86
2019-05-26T01:43:30.568Z,1017.85
2019-05-26T01:44:00.741Z,1017.85
2019-05-26T01:44:30.551Z,1017.89
2019-05-26T01:45:30.567Z,1017.85
2019-05-26T01:46:00.711Z,1017.87
2019-05-26T01:46:32.277Z,1017.87
2019-05-26T01:47:00.616Z,1017.86
2019-05-26T01:48:00.677Z,1017.86
2019-05-26T01:48:30.552Z,1017.85
2019-05-26T01:49:00.610Z,1017.87
2019-05-26T01:49:39.098Z,1017.84
2019-05-26T01:50:30.553Z,1017.85
2019-05-26T01:51:00.613Z,1017.83
2019-05-26T01:51:30.557Z,1017.86
2019-05-26T01:52:00.627Z,1017.86
2019-05-26T01:53:00.618Z,1017.83
2019-05-26T01:53:30.557Z,1017.84
2019-05-26T01:54:00.611Z,1017.83
2019-05-26T01:54:30.556Z,1017.83
2019-05-26T01:55:30.552Z,1017.86
2019-05-26T01:56:00.625Z,1017.86
2019-05-26T01:56:30.558Z,1017.88
2019-05-26T01:57:02.173Z,1017.87
2019-05-26T01:58:03.150Z,1017.87
2019-05-26T01:58:30.566Z,1017.87
2019-05-26T01:59:00.616Z,1017.85
2019-05-26T01:59:30.811Z,1017.86
2019-05-26T02:00:30.665Z,1017.83
2019-05-26T02:01:00.615Z,1017.86
2019-05-26T02:01:30.555Z,1017.86
2019-05-26T02:02:00.630Z,1017.83
2019-05-26T02:03:00.643Z,1017.86
2019-05-26T02:03:30.569Z,1017.83
2019-05-26T02:04:00.625Z,1017.84
2019-05-26T02:04:30.599Z,1017.85
2019-05-26T02:05:30.566Z,1017.82
2019-05-26T02:06:00.613Z,1017.84
2019-05-26T02:06:30.549Z,1017.80
2019-05-26T02:07:00.620Z,1017.83
2019-05-26T02:08:00.627Z,1017.83
2019-05-26T02:08:39.955Z,1017.82
2019-05-26T02:09:00.615Z,1017.81
2019-05-26T02:09:31.585Z,1017.82
2019-05-26T02:10:34.363Z,1017.81
2019-05-26T02:11:00.727Z,1017.78
2019-05-26T02:11:30.558Z,1017.81
2019-05-26T02:12:00.620Z,1017.79
2019-05-26T02:13:00.688Z,1017.78
2019-05-26T02:13:30.563Z,1017.77
2019-05-26T02:14:00.622Z,1017.76
2019-05-26T02:14:30.559Z,1017.77
2019-05-26T02:15:30.557Z,1017.78
2019-05-26T02:16:00.632Z,1017.79
2019-05-26T02:16:30.561Z,1017.78
2019-05-26T02:17:00.643Z,1017.79
2019-05-26T02:18:02.207Z,1017.78
2019-05-26T02:18:30.579Z,1017.80
2019-05-26T02:19:03.180Z,1017.80
2019-05-26T02:19:30.559Z,1017.81
2019-05-26T02:20:30.673Z,1017.80
2019-05-26T02:21:04.356Z,1017.79
2019-05-26T02:21:30.553Z,1017.79
2019-05-26T02:22:00.616Z,1017.81
2019-05-26T02:23:00.623Z,1017.78
2019-05-26T02:23:30.564Z,1017.76
2019-05-26T02:24:00.623Z,1017.78
2019-05-26T02:24:30.573Z,1017.79
2019-05-26T02:25:30.640Z,1017.76
2019-05-26T02:26:00.659Z,1017.77
2019-05-26T02:26:30.564Z,1017.79
2019-05-26T02:27:00.624Z,1017.80
2019-05-26T02:28:00.621Z,1017.76
2019-05-26T02:28:32.259Z,1017.79
2019-05-26T02:29:00.622Z,1017.76
2019-05-26T02:29:33.152Z,1017.78
2019-05-26T02:30:30.564Z,1017.76
2019-05-26T02:31:00.626Z,1017.74
2019-05-26T02:31:34.277Z,1017.75
2019-05-26T02:32:00.630Z,1017.75
2019-05-26T02:33:00.692Z,1017.76
2019-05-26T02:33:30.600Z,1017.76
2019-05-26T02:34:00.623Z,1017.78
2019-05-26T02:34:30.562Z,1017.78
2019-05-26T02:35:30.577Z,1017.79
2019-05-26T02:36:00.642Z,1017.79
2019-05-26T02:36:30.558Z,1017.79
2019-05-26T02:37:00.633Z,1017.80
2019-05-26T02:38:00.708Z,1017.79
2019-05-26T02:38:30.567Z,1017.82
2019-05-26T02:39:05.267Z,1017.82
2019-05-26T02:39:30.566Z,1017.83
2019-05-26T02:40:30.560Z,1017.84
2019-05-26T02:41:00.631Z,1017.81
2019-05-26T02:41:30.568Z,1017.81
2019-05-26T02:42:04.553Z,1017.81
2019-05-26T02:43:00.630Z,1017.79
2019-05-26T02:43:30.569Z,1017.77
2019-05-26T02:44:00.638Z,1017.79
2019-05-26T02:44:30.571Z,1017.82
2019-05-26T02:45:30.566Z,1017.79
2019-05-26T02:46:00.640Z,1017.80
2019-05-26T02:46:30.573Z,1017.76
2019-05-26T02:47:00.635Z,1017.75
2019-05-26T02:48:00.646Z,1017.79
2019-05-26T02:48:30.581Z,1017.79
2019-05-26T02:49:00.634Z,1017.76
2019-05-26T02:49:32.121Z,1017.78
2019-05-26T02:50:33.054Z,1017.78
2019-05-26T02:51:00.621Z,1017.77
2019-05-26T02:51:30.567Z,1017.79
2019-05-26T02:52:00.634Z,1017.80
2019-05-26T02:53:00.622Z,1017.83
2019-05-26T02:53:30.570Z,1017.84
2019-05-26T02:54:00.650Z,1017.86
2019-05-26T02:54:30.634Z,1017.87
2019-05-26T02:55:30.568Z,1017.89
2019-05-26T02:56:00.628Z,1017.89
2019-05-26T02:56:30.613Z,1017.91
2019-05-26T02:57:00.633Z,1017.92
2019-05-26T02:58:00.630Z,1017.94
2019-05-26T02:58:30.613Z,1017.96
2019-05-26T02:59:00.632Z,1017.94
2019-05-26T02:59:30.574Z,1017.96
2019-05-26T03:00:30.595Z,1017.96
2019-05-26T03:01:03.103Z,1017.96
2019-05-26T03:01:30.579Z,1017.97
2019-05-26T03:02:08.101Z,1017.99
2019-05-26T03:03:04.287Z,1018.00
2019-05-26T03:03:30.681Z,1018.02
2019-05-26T03:04:00.638Z,1018.04
2019-05-26T03:04:30.572Z,1018.03
2019-05-26T03:05:30.583Z,1018.01
2019-05-26T03:06:00.633Z,1018.03
2019-05-26T03:06:30.568Z,1018.01
2019-05-26T03:07:00.708Z,1018.01
2019-05-26T03:08:00.641Z,1018.02
2019-05-26T03:08:30.588Z,1018.02
2019-05-26T03:09:20.838Z,1018.01
2019-05-26T03:09:30.570Z,1018.00
2019-05-26T03:10:32.083Z,1018.00
2019-05-26T03:11:00.626Z,1017.97
2019-05-26T03:11:33.070Z,1017.99
2019-05-26T03:12:00.634Z,1017.98
2019-05-26T03:13:00.636Z,1017.98
2019-05-26T03:13:34.339Z,1017.97
2019-05-26T03:14:00.643Z,1017.95
2019-05-26T03:14:30.570Z,1017.98
2019-05-26T03:15:30.587Z,1017.97
2019-05-26T03:16:00.628Z,1017.97
2019-05-26T03:16:30.580Z,1017.95
2019-05-26T03:17:00.634Z,1017.97
2019-05-26T03:18:00.636Z,1017.96
2019-05-26T03:18:30.575Z,1017.96
2019-05-26T03:19:00.634Z,1017.96
2019-05-26T03:19:30.652Z,1017.99
2019-05-26T03:20:30.571Z,1017.98
2019-05-26T03:21:02.160Z,1017.97
2019-05-26T03:21:30.646Z,1017.99
2019-05-26T03:22:03.119Z,1017.99
2019-05-26T03:23:00.635Z,1018.00
2019-05-26T03:23:30.651Z,1017.99
2019-05-26T03:24:04.783Z,1018.01
2019-05-26T03:24:30.571Z,1018.01
2019-05-26T03:25:30.596Z,1018.02
2019-05-26T03:26:00.635Z,1018.01
2019-05-26T03:26:30.578Z,1018.03
2019-05-26T03:27:00.636Z,1018.05
2019-05-26T03:28:00.716Z,1018.03
2019-05-26T03:28:30.577Z,1018.03
2019-05-26T03:29:00.642Z,1018.00
2019-05-26T03:29:30.583Z,1018.04
2019-05-26T03:30:30.574Z,1018.06
2019-05-26T03:31:00.650Z,1018.05
2019-05-26T03:31:32.130Z,1018.02
2019-05-26T03:32:00.641Z,1018.04
2019-05-26T03:33:00.678Z,1018.03
2019-05-26T03:33:31.578Z,1018.02
2019-05-26T03:34:00.705Z,1018.01
2019-05-26T03:34:35.312Z,1018.03
2019-05-26T03:35:30.578Z,1018.01
2019-05-26T03:36:00.647Z,1017.99
2019-05-26T03:36:30.578Z,1017.98
2019-05-26T03:37:00.650Z,1017.97
2019-05-26T03:38:00.636Z,1017.97
2019-05-26T03:38:30.575Z,1017.96
2019-05-26T03:39:00.637Z,1017.98
2019-05-26T03:39:44.120Z,1017.97
2019-05-26T03:40:30.593Z,1018.01
2019-05-26T03:41:00.647Z,1017.98
2019-05-26T03:41:30.578Z,1017.98
2019-05-26T03:42:02.146Z,1017.99
2019-05-26T03:43:03.113Z,1017.97
2019-05-26T03:43:30.581Z,1017.96
2019-05-26T03:44:00.657Z,1017.96
2019-05-26T03:44:30.587Z,1017.94
2019-05-26T03:45:30.707Z,1017.93
2019-05-26T03:46:00.639Z,1017.90
2019-05-26T03:46:30.650Z,1017.92
2019-05-26T03:47:00.643Z,1017.92
2019-05-26T03:48:00.640Z,1017.90
2019-05-26T03:48:30.633Z,1017.87
2019-05-26T03:49:00.644Z,1017.89
2019-05-26T03:49:30.597Z,1017.88
2019-05-26T03:50:30.637Z,1017.88
2019-05-26T03:51:00.643Z,1017.87
2019-05-26T03:51:30.577Z,1017.89
2019-05-26T03:52:00.642Z,1017.89
2019-05-26T03:53:00.654Z,1017.92
2019-05-26T03:53:33.201Z,1017.93
2019-05-26T03:54:00.642Z,1017.92
2019-05-26T03:54:30.586Z,1017.93
2019-05-26T03:55:34.156Z,1017.96
2019-05-26T03:56:00.640Z,1017.97
2019-05-26T03:56:30.582Z,1017.96
2019-05-26T03:57:00.663Z,1018.00
2019-05-26T03:58:00.640Z,1017.99
2019-05-26T03:58:30.607Z,1017.99
2019-05-26T03:59:00.645Z,1017.98
2019-05-26T03:59:30.595Z,1017.99
2019-05-26T04:00:30.584Z,1018.03
2019-05-26T04:01:00.674Z,1018.02
2019-05-26T04:01:30.594Z,1018.02
2019-05-26T04:02:00.652Z,1018.02
2019-05-26T04:03:02.155Z,1018.03
2019-05-26T04:03:30.585Z,1018.03
2019-05-26T04:04:03.119Z,1018.04
2019-05-26T04:04:30.584Z,1018.03
2019-05-26T04:05:30.580Z,1018.03
2019-05-26T04:06:04.267Z,1018.02
2019-05-26T04:06:30.586Z,1018.00
2019-05-26T04:07:00.651Z,1018.03
2019-05-26T04:08:08.249Z,1018.05
2019-05-26T04:08:30.602Z,1018.03
2019-05-26T04:09:00.648Z,1018.06
2019-05-26T04:09:30.836Z,1018.03
2019-05-26T04:10:30.592Z,1018.06
2019-05-26T04:11:00.643Z,1018.05
2019-05-26T04:11:30.598Z,1018.05
2019-05-26T04:12:00.710Z,1018.06
2019-05-26T04:13:00.652Z,1018.05
2019-05-26T04:13:32.109Z,1018.09
2019-05-26T04:14:00.647Z,1018.05
2019-05-26T04:14:33.068Z,1018.06
2019-05-26T04:15:30.679Z,1018.10
2019-05-26T04:16:00.667Z,1018.08
2019-05-26T04:16:34.293Z,1018.07
2019-05-26T04:17:00.648Z,1018.08
2019-05-26T04:18:00.664Z,1018.08
2019-05-26T04:18:30.599Z,1018.09
2019-05-26T04:19:00.661Z,1018.10
2019-05-26T04:19:30.589Z,1018.10
2019-05-26T04:20:30.666Z,1018.10
2019-05-26T04:21:00.660Z,1018.10
2019-05-26T04:21:30.595Z,1018.10
2019-05-26T04:22:00.749Z,1018.10
2019-05-26T04:23:00.646Z,1018.11
2019-05-26T04:23:30.591Z,1018.11
2019-05-26T04:24:02.121Z,1018.09
2019-05-26T04:24:30.584Z,1018.08
2019-05-26T04:25:30.597Z,1018.06
2019-05-26T04:26:00.679Z,1018.05
2019-05-26T04:26:30.621Z,1018.06
2019-05-26T04:27:04.246Z,1018.07
2019-05-26T04:28:00.676Z,1018.04
2019-05-26T04:28:30.599Z,1018.07
2019-05-26T04:29:00.655Z,1018.03
2019-05-26T04:29:30.599Z,1018.04
2019-05-26T04:30:30.595Z,1018.02
2019-05-26T04:31:00.662Z,1018.01
2019-05-26T04:31:30.595Z,1018.02
2019-05-26T04:32:02.710Z,1018.01
2019-05-26T04:33:00.656Z,1018.00
2019-05-26T04:33:30.596Z,1018.01
2019-05-26T04:34:00.649Z,1017.99
2019-05-26T04:34:32.101Z,1018.02
2019-05-26T04:35:33.107Z,1018.03
2019-05-26T04:36:00.662Z,1018.01
2019-05-26T04:36:30.673Z,1018.02
2019-05-26T04:37:00.656Z,1018.05
2019-05-26T04:38:00.657Z,1018.03
2019-05-26T04:38:30.705Z,1018.05
2019-05-26T04:39:00.650Z,1018.03
2019-05-26T04:39:30.596Z,1018.05
2019-05-26T04:40:30.655Z,1018.05
2019-05-26T04:41:00.649Z,1018.06
2019-05-26T04:41:30.598Z,1018.08
2019-05-26T04:42:00.660Z,1018.05
2019-05-26T04:43:00.666Z,1018.04
2019-05-26T04:43:30.593Z,1018.08
2019-05-26T04:44:01.659Z,1018.07
2019-05-26T04:44:30.611Z,1018.09
2019-05-26T04:45:30.595Z,1018.09
2019-05-26T04:46:03.136Z,1018.11
2019-05-26T04:46:30.603Z,1018.10
2019-05-26T04:47:00.661Z,1018.13
2019-05-26T04:48:04.285Z,1018.14
2019-05-26T04:48:30.625Z,1018.11
2019-05-26T04:49:00.665Z,1018.14
2019-05-26T04:49:30.605Z,1018.13
2019-05-26T04:50:30.624Z,1018.13
2019-05-26T04:51:00.718Z,1018.11
2019-05-26T04:51:30.605Z,1018.11
2019-05-26T04:52:00.660Z,1018.13
2019-05-26T04:53:07.179Z,1018.13
2019-05-26T04:53:30.595Z,1018.11
2019-05-26T04:54:00.656Z,1018.12
2019-05-26T04:54:30.602Z,1018.12
2019-05-26T04:55:32.222Z,1018.13
2019-05-26T04:56:00.668Z,1018.13
2019-05-26T04:56:33.211Z,1018.12
2019-05-26T04:57:00.661Z,1018.12
2019-05-26T04:58:00.686Z,1018.15
2019-05-26T04:58:35.369Z,1018.13
2019-05-26T04:59:00.652Z,1018.14
2019-05-26T04:59:30.601Z,1018.13
2019-05-26T05:00:30.608Z,1018.14
2019-05-26T05:01:00.668Z,1018.15
2019-05-26T05:01:30.664Z,1018.14
2019-05-26T05:02:00.668Z,1018.20
2019-05-26T05:03:00.664Z,1018.19
2019-05-26T05:03:30.605Z,1018.18
2019-05-26T05:04:00.692Z,1018.21
2019-05-26T05:04:30.599Z,1018.23
2019-05-26T05:05:30.682Z,1018.23
2019-05-26T05:06:02.128Z,1018.25
2019-05-26T05:06:30.599Z,1018.25
2019-05-26T05:07:03.051Z,1018.26
2019-05-26T05:08:00.671Z,1018.24
2019-05-26T05:08:30.740Z,1018.26
2019-05-26T05:09:04.388Z,1018.26
2019-05-26T05:09:30.648Z,1018.26
2019-05-26T05:10:42.151Z,1018.25
2019-05-26T05:11:00.669Z,1018.26
2019-05-26T05:11:30.607Z,1018.27
2019-05-26T05:12:00.663Z,1018.26
2019-05-26T05:13:00.664Z,1018.24
2019-05-26T05:13:30.605Z,1018.30
2019-05-26T05:14:00.758Z,1018.30
2019-05-26T05:14:30.608Z,1018.30
2019-05-26T05:15:30.601Z,1018.30
2019-05-26T05:16:00.763Z,1018.33
2019-05-26T05:16:32.103Z,1018.32
2019-05-26T05:17:00.670Z,1018.32
2019-05-26T05:18:00.687Z,1018.35
2019-05-26T05:18:30.604Z,1018.35
2019-05-26T05:19:00.671Z,1018.38
2019-05-26T05:19:35.340Z,1018.37
2019-05-26T05:20:30.612Z,1018.38
2019-05-26T05:21:00.680Z,1018.39
2019-05-26T05:21:30.617Z,1018.39
2019-05-26T05:22:00.665Z,1018.41
2019-05-26T05:23:00.673Z,1018.42
2019-05-26T05:23:30.620Z,1018.44
2019-05-26T05:24:00.709Z,1018.42
2019-05-26T05:24:30.605Z,1018.43
2019-05-26T05:25:30.605Z,1018.45
2019-05-26T05:26:00.680Z,1018.44
2019-05-26T05:26:30.606Z,1018.43
2019-05-26T05:27:02.172Z,1018.43
2019-05-26T05:28:03.150Z,1018.46
2019-05-26T05:28:30.613Z,1018.45
2019-05-26T05:29:00.671Z,1018.42
2019-05-26T05:29:30.606Z,1018.43
2019-05-26T05:30:30.856Z,1018.42
2019-05-26T05:31:00.679Z,1018.41
2019-05-26T05:31:30.609Z,1018.40
2019-05-26T05:32:00.689Z,1018.42
2019-05-26T05:33:00.678Z,1018.40
2019-05-26T05:33:30.607Z,1018.39
2019-05-26T05:34:00.669Z,1018.42
2019-05-26T05:34:30.672Z,1018.39
2019-05-26T05:35:30.613Z,1018.40
2019-05-26T05:36:00.666Z,1018.41
2019-05-26T05:36:30.646Z,1018.40
2019-05-26T05:37:00.676Z,1018.40
2019-05-26T05:38:00.668Z,1018.39
2019-05-26T05:38:33.147Z,1018.40
2019-05-26T05:39:00.791Z,1018.41
2019-05-26T05:39:30.675Z,1018.42
2019-05-26T05:40:34.414Z,1018.39
2019-05-26T05:41:01.739Z,1018.43
2019-05-26T05:41:30.610Z,1018.40
2019-05-26T05:42:00.664Z,1018.43
2019-05-26T05:43:00.711Z,1018.41
2019-05-26T05:43:30.614Z,1018.42
2019-05-26T05:44:00.669Z,1018.41
2019-05-26T05:44:30.619Z,1018.40
2019-05-26T05:45:30.608Z,1018.42
2019-05-26T05:46:00.666Z,1018.41
2019-05-26T05:46:30.616Z,1018.43
2019-05-26T05:47:00.687Z,1018.42
2019-05-26T05:48:02.215Z,1018.44
2019-05-26T05:48:30.620Z,1018.42
2019-05-26T05:49:03.413Z,1018.41
2019-05-26T05:49:31.417Z,1018.41
2019-05-26T05:50:30.616Z,1018.43
2019-05-26T05:51:04.277Z,1018.41
2019-05-26T05:51:30.899Z,1018.41
2019-05-26T05:52:00.692Z,1018.44
2019-05-26T05:53:00.670Z,1018.42
2019-05-26T05:53:30.624Z,1018.45
2019-05-26T05:54:00.674Z,1018.46
2019-05-26T05:54:30.625Z,1018.44
2019-05-26T05:55:30.767Z,1018.47
2019-05-26T05:56:00.674Z,1018.48
2019-05-26T05:56:30.625Z,1018.48
2019-05-26T05:57:00.687Z,1018.49
2019-05-26T05:58:00.709Z,1018.48
2019-05-26T05:58:32.138Z,1018.48
2019-05-26T05:59:00.675Z,1018.47
2019-05-26T05:59:33.060Z,1018.50
2019-05-26T06:00:30.618Z,1018.49
2019-05-26T06:01:00.673Z,1018.49
2019-05-26T06:01:35.433Z,1018.48
2019-05-26T06:02:00.671Z,1018.51
2019-05-26T06:03:00.678Z,1018.50
2019-05-26T06:03:31.420Z,1018.52
2019-05-26T06:04:00.702Z,1018.52
2019-05-26T06:04:30.633Z,1018.54
2019-05-26T06:05:30.635Z,1018.56
2019-05-26T06:06:00.735Z,1018.53
2019-05-26T06:06:30.606Z,1018.56
2019-05-26T06:07:00.680Z,1018.56
2019-05-26T06:08:00.674Z,1018.57
2019-05-26T06:08:30.613Z,1018.57
2019-05-26T06:09:02.189Z,1018.57
2019-05-26T06:09:30.623Z,1018.58
2019-05-26T06:10:30.612Z,1018.58
2019-05-26T06:11:16.300Z,1018.59
2019-05-26T06:11:30.621Z,1018.60
2019-05-26T06:12:04.308Z,1018.59
2019-05-26T06:13:00.687Z,1018.57
2019-05-26T06:13:30.618Z,1018.59
2019-05-26T06:14:00.677Z,1018.59
2019-05-26T06:14:30.659Z,1018.60
2019-05-26T06:15:30.660Z,1018.61
2019-05-26T06:16:00.676Z,1018.61
2019-05-26T06:16:30.628Z,1018.61
2019-05-26T06:17:00.684Z,1018.59
2019-05-26T06:18:00.674Z,1018.62
2019-05-26T06:18:30.692Z,1018.63
2019-05-26T06:19:00.682Z,1018.64
2019-05-26T06:19:32.188Z,1018.63
2019-05-26T06:20:33.135Z,1018.64
2019-05-26T06:21:00.678Z,1018.63
2019-05-26T06:21:30.623Z,1018.66
2019-05-26T06:22:00.678Z,1018.65
2019-05-26T06:23:00.689Z,1018.70
2019-05-26T06:23:30.621Z,1018.67
2019-05-26T06:24:00.674Z,1018.69
2019-05-26T06:24:30.642Z,1018.69
2019-05-26T06:25:30.630Z,1018.73
2019-05-26T06:26:00.679Z,1018.76
2019-05-26T06:26:30.663Z,1018.72
2019-05-26T06:27:00.692Z,1018.72
2019-05-26T06:28:00.912Z,1018.74
2019-05-26T06:28:30.634Z,1018.72
2019-05-26T06:29:00.796Z,1018.74
2019-05-26T06:29:30.635Z,1018.78
2019-05-26T06:30:30.622Z,1018.76
2019-05-26T06:31:06.050Z,1018.76
2019-05-26T06:31:33.027Z,1018.77
2019-05-26T06:32:01.825Z,1018.75
2019-05-26T06:32:30.699Z,1018.77
2019-05-26T06:33:04.103Z,1018.75
2019-05-26T06:33:30.664Z,1018.76
2019-05-26T06:34:00.687Z,1018.75
2019-05-26T06:34:30.628Z,1018.78
2019-05-26T06:35:33.635Z,1018.78
2019-05-26T06:36:00.696Z,1018.75
2019-05-26T06:36:30.634Z,1018.77
2019-05-26T06:37:00.687Z,1018.75
2019-05-26T06:38:00.699Z,1018.78
2019-05-26T06:38:30.628Z,1018.77
2019-05-26T06:39:00.715Z,1018.76
2019-05-26T06:39:30.638Z,1018.79
2019-05-26T06:40:32.379Z,1018.79
2019-05-26T06:41:00.696Z,1018.79
2019-05-26T06:41:36.049Z,1018.80
2019-05-26T06:42:00.684Z,1018.78
2019-05-26T06:43:00.722Z,1018.78
2019-05-26T06:43:35.351Z,1018.78
2019-05-26T06:44:00.687Z,1018.79
2019-05-26T06:44:30.628Z,1018.76
2019-05-26T06:45:30.654Z,1018.77
2019-05-26T06:46:00.697Z,1018.77
2019-05-26T06:46:29.447Z,1018.77
2019-05-26T06:47:00.683Z,1018.78
2019-05-26T06:47:30.731Z,1018.79
2019-05-26T06:48:00.686Z,1018.79
2019-05-26T06:48:30.629Z,1018.76
2019-05-26T06:49:00.688Z,1018.78
2019-05-26T06:49:30.686Z,1018.79
2019-05-26T06:50:00.693Z,1018.75
2019-05-26T06:50:30.634Z,1018.75
2019-05-26T06:51:02.095Z,1018.76
2019-05-26T06:51:30.648Z,1018.76
2019-05-26T06:52:03.069Z,1018.78
2019-05-26T06:53:00.714Z,1018.75
2019-05-26T06:53:37.230Z,1018.75
2019-05-26T06:54:04.159Z,1018.74
2019-05-26T06:54:30.630Z,1018.73
2019-05-26T06:55:30.683Z,1018.72
2019-05-26T06:56:00.702Z,1018.72
2019-05-26T06:56:30.653Z,1018.72
2019-05-26T06:57:00.690Z,1018.75
2019-05-26T06:58:00.699Z,1018.73
2019-05-26T06:58:30.626Z,1018.72
2019-05-26T06:59:03.713Z,1018.73
2019-05-26T06:59:30.633Z,1018.73
2019-05-26T07:00:30.637Z,1018.74
2019-05-26T07:01:00.945Z,1018.74
2019-05-26T07:01:32.125Z,1018.74
2019-05-26T07:02:00.728Z,1018.73
2019-05-26T07:03:00.688Z,1018.74
2019-05-26T07:03:30.629Z,1018.74
2019-05-26T07:04:00.698Z,1018.75
2019-05-26T07:04:34.315Z,1018.75
2019-05-26T07:05:30.639Z,1018.73
2019-05-26T07:06:00.701Z,1018.73
2019-05-26T07:06:30.633Z,1018.73
2019-05-26T07:07:00.701Z,1018.71
2019-05-26T07:08:00.702Z,1018.74
2019-05-26T07:08:30.641Z,1018.73
2019-05-26T07:09:00.688Z,1018.71
2019-05-26T07:09:30.638Z,1018.69
2019-05-26T07:10:30.795Z,1018.71
2019-05-26T07:11:00.693Z,1018.67
2019-05-26T07:11:30.660Z,1018.66
2019-05-26T07:12:02.174Z,1018.66
2019-05-26T07:13:03.131Z,1018.66
2019-05-26T07:13:30.635Z,1018.65
2019-05-26T07:14:00.690Z,1018.67
2019-05-26T07:14:30.724Z,1018.64
2019-05-26T07:15:30.635Z,1018.68
2019-05-26T07:16:00.701Z,1018.68
2019-05-26T07:16:38.317Z,1018.66
2019-05-26T07:17:00.737Z,1018.65
2019-05-26T07:18:00.694Z,1018.67
2019-05-26T07:18:30.649Z,1018.65
2019-05-26T07:19:00.689Z,1018.66
2019-05-26T07:19:30.649Z,1018.67
2019-05-26T07:20:30.639Z,1018.66
2019-05-26T07:21:00.717Z,1018.65
2019-05-26T07:21:30.640Z,1018.63
2019-05-26T07:22:00.693Z,1018.66
2019-05-26T07:23:00.729Z,1018.63
2019-05-26T07:23:33.198Z,1018.62
2019-05-26T07:24:00.695Z,1018.62
2019-05-26T07:24:31.635Z,1018.60
2019-05-26T07:25:34.342Z,1018.59
2019-05-26T07:26:00.696Z,1018.60
2019-05-26T07:26:30.645Z,1018.59
2019-05-26T07:27:00.764Z,1018.58
2019-05-26T07:28:00.697Z,1018.60
2019-05-26T07:28:30.653Z,1018.60
2019-05-26T07:29:00.728Z,1018.59
2019-05-26T07:29:30.631Z,1018.59
2019-05-26T07:30:30.638Z,1018.59
2019-05-26T07:31:01.660Z,1018.56
2019-05-26T07:31:30.637Z,1018.59